createdAt,value
2023-03-24T00:00:32.722Z,99.90
2023-03-24T00:03:03.347Z,99.90
2023-03-24T00:05:31.063Z,99.90
2023-03-24T00:08:02.231Z,99.90
2023-03-24T00:10:32.878Z,99.90
2023-03-24T00:13:00.374Z,99.90
2023-03-24T00:15:28.125Z,99.90
2023-03-24T00:17:58.315Z,99.90
2023-03-24T00:20:26.262Z,99.90
2023-03-24T00:22:58.821Z,99.90
2023-03-24T00:25:29.758Z,99.90
2023-03-24T00:27:57.822Z,99.90
2023-03-24T00:30:26.233Z,99.90
2023-03-24T00:32:54.334Z,99.90
2023-03-24T00:35:22.040Z,99.90
2023-03-24T00:37:52.280Z,99.90
2023-03-24T00:40:21.525Z,99.90
2023-03-24T00:42:50.550Z,99.90
2023-03-24T00:45:23.831Z,99.90
2023-03-24T00:47:54.506Z,99.90
2023-03-24T00:50:26.708Z,99.90
2023-03-24T00:52:55.538Z,99.90
2023-03-24T00:55:22.997Z,99.90
2023-03-24T00:57:50.734Z,99.90
2023-03-24T01:00:24.106Z,99.90
2023-03-24T01:02:56.132Z,99.90
2023-03-24T01:05:29.745Z,99.90
2023-03-24T01:07:59.029Z,99.90
2023-03-24T01:10:27.047Z,99.90
2023-03-24T01:13:00.148Z,99.90
2023-03-24T01:15:31.392Z,99.90
2023-03-24T01:18:02.160Z,99.90
2023-03-24T01:20:33.630Z,99.90
2023-03-24T01:23:02.839Z,99.90
2023-03-24T01:25:30.741Z,99.90
2023-03-24T01:27:57.776Z,99.90
2023-03-24T01:30:26.921Z,99.90
2023-03-24T01:32:54.325Z,99.90
2023-03-24T01:35:23.150Z,99.90
2023-03-24T01:37:50.264Z,99.90
2023-03-24T01:40:23.810Z,99.90
2023-03-24T01:42:51.380Z,99.90
2023-03-24T01:45:40.353Z,99.90
2023-03-24T01:48:26.059Z,99.90
2023-03-24T01:51:18.937Z,99.90
2023-03-24T01:54:00.270Z,99.90
2023-03-24T01:56:31.750Z,99.90
2023-03-24T01:59:02.558Z,99.90
2023-03-24T02:01:45.223Z,99.90
2023-03-24T02:04:48.512Z,99.90
2023-03-24T02:07:25.521Z,99.90
2023-03-24T02:09:53.013Z,99.90
2023-03-24T02:12:20.736Z,99.90
2023-03-24T02:14:48.399Z,99.90
2023-03-24T02:17:18.310Z,99.90
2023-03-24T02:20:26.727Z,99.90
2023-03-24T02:22:59.836Z,99.90
2023-03-24T02:25:38.266Z,99.90
2023-03-24T02:28:27.033Z,99.90
2023-03-24T02:31:03.534Z,99.90
2023-03-24T02:34:00.869Z,99.90
2023-03-24T02:36:42.991Z,99.90
2023-03-24T02:39:12.875Z,99.90
2023-03-24T02:41:56.015Z,99.90
2023-03-24T02:44:43.497Z,99.90
2023-03-24T02:47:43.168Z,99.90
2023-03-24T02:50:25.741Z,98.10
2023-03-24T02:53:13.472Z,99.90
2023-03-24T02:56:06.102Z,98.90
2023-03-24T02:58:52.308Z,99.70
2023-03-24T03:01:31.808Z,98.80
2023-03-24T03:04:18.628Z,99.00
2023-03-24T03:06:54.746Z,99.70
2023-03-24T03:09:23.503Z,99.90
2023-03-24T03:11:54.830Z,99.90
2023-03-24T03:14:35.347Z,99.80
2023-03-24T03:17:16.322Z,99.90
2023-03-24T03:20:05.241Z,99.90
2023-03-24T03:22:56.805Z,99.90
2023-03-24T03:25:28.931Z,99.90
2023-03-24T03:28:00.006Z,99.90
2023-03-24T03:30:49.733Z,99.90
2023-03-24T03:33:25.223Z,99.90
2023-03-24T03:36:08.800Z,99.90
2023-03-24T03:38:59.128Z,99.90
2023-03-24T03:41:26.339Z,99.90
2023-03-24T03:43:53.825Z,99.90
2023-03-24T03:46:20.925Z,99.90
2023-03-24T03:48:49.340Z,99.90
2023-03-24T03:51:16.717Z,99.90
2023-03-24T03:53:53.947Z,99.90
2023-03-24T03:56:24.737Z,99.90
2023-03-24T03:59:23.657Z,99.90
2023-03-24T04:01:51.502Z,99.90
2023-03-24T04:04:50.695Z,99.90
2023-03-24T04:08:31.567Z,99.90
2023-03-24T04:11:54.956Z,99.90
2023-03-24T04:15:01.438Z,99.90
2023-03-24T04:18:06.756Z,99.90
2023-03-24T04:21:18.950Z,99.90
2023-03-24T04:24:10.749Z,99.70
2023-03-24T04:26:50.819Z,98.80
2023-03-24T04:29:42.421Z,97.40
2023-03-24T04:32:46.976Z,98.20
2023-03-24T04:35:43.849Z,99.20
2023-03-24T04:38:36.411Z,97.80
2023-03-24T04:41:29.383Z,99.70
2023-03-24T04:44:12.679Z,98.30
2023-03-24T04:46:57.811Z,98.50
2023-03-24T04:49:25.658Z,98.80
2023-03-24T04:51:53.678Z,99.30
2023-03-24T04:54:28.108Z,99.60
2023-03-24T04:57:03.051Z,99.50
2023-03-24T04:59:36.990Z,99.90
2023-03-24T05:02:07.111Z,99.90
2023-03-24T05:04:52.857Z,99.90
2023-03-24T05:07:34.861Z,99.90
2023-03-24T05:10:07.801Z,99.80
2023-03-24T05:12:40.972Z,99.90
2023-03-24T05:15:26.169Z,99.10
2023-03-24T05:18:01.050Z,99.70
2023-03-24T05:20:28.464Z,99.50
2023-03-24T05:23:04.484Z,99.10
2023-03-24T05:25:31.474Z,98.80
2023-03-24T05:27:59.433Z,99.10
2023-03-24T05:30:26.478Z,99.50
2023-03-24T05:33:00.873Z,99.90
2023-03-24T05:35:28.476Z,99.90
2023-03-24T05:37:55.972Z,99.90
2023-03-24T05:40:23.135Z,99.70
2023-03-24T05:42:54.667Z,99.90
2023-03-24T05:45:26.224Z,99.90
2023-03-24T05:47:55.823Z,99.90
2023-03-24T05:50:34.712Z,99.90
2023-03-24T05:53:01.810Z,99.90
2023-03-24T05:55:48.452Z,99.90
2023-03-24T05:58:35.424Z,99.90
2023-03-24T06:01:08.193Z,99.90
2023-03-24T06:03:39.716Z,99.90
2023-03-24T06:06:14.895Z,99.90
2023-03-24T06:08:45.020Z,99.00
2023-03-24T06:11:13.297Z,99.10
2023-03-24T06:13:50.101Z,99.30
2023-03-24T06:16:18.869Z,99.40
2023-03-24T06:18:54.722Z,99.60
2023-03-24T06:21:54.601Z,99.70
2023-03-24T06:24:27.434Z,98.90
2023-03-24T06:27:02.319Z,99.90
2023-03-24T06:29:32.803Z,99.90
2023-03-24T06:32:00.194Z,99.90
2023-03-24T06:34:30.101Z,99.90
2023-03-24T06:37:12.758Z,99.90
2023-03-24T06:39:40.662Z,99.90
2023-03-24T06:42:08.448Z,99.90
2023-03-24T06:44:35.975Z,99.90
2023-03-24T06:47:04.059Z,99.80
2023-03-24T06:49:34.808Z,99.50
2023-03-24T06:52:04.693Z,99.50
2023-03-24T06:54:34.830Z,99.10
2023-03-24T06:57:03.755Z,99.10
2023-03-24T06:59:50.840Z,99.10
2023-03-24T07:02:17.804Z,99.40
2023-03-24T07:04:47.561Z,99.20
2023-03-24T07:08:16.195Z,98.90
2023-03-24T07:10:40.238Z,98.60
2023-03-24T07:13:08.506Z,98.40
2023-03-24T07:15:37.267Z,97.60
2023-03-24T07:18:04.893Z,97.00
2023-03-24T07:20:38.423Z,96.60
2023-03-24T07:23:17.069Z,95.20
2023-03-24T07:25:52.167Z,94.40
2023-03-24T07:28:41.860Z,94.40
2023-03-24T07:31:10.993Z,94.20
2023-03-24T07:33:39.917Z,94.10
2023-03-24T07:36:08.061Z,92.70
2023-03-24T07:38:37.426Z,91.30
2023-03-24T07:41:09.060Z,89.60
2023-03-24T07:43:41.544Z,90.40
2023-03-24T07:46:19.635Z,91.60
2023-03-24T07:48:47.269Z,90.50
2023-03-24T07:51:16.649Z,86.70
2023-03-24T07:53:51.064Z,89.00
2023-03-24T07:56:30.518Z,85.40
2023-03-24T07:58:59.698Z,83.30
2023-03-24T08:01:51.579Z,82.50
2023-03-24T08:04:34.782Z,82.20
2023-03-24T08:07:14.310Z,83.70
2023-03-24T08:09:41.418Z,84.30
2023-03-24T08:12:17.771Z,83.20
2023-03-24T08:14:47.596Z,83.30
2023-03-24T08:17:14.561Z,83.00
2023-03-24T08:19:56.178Z,79.80
2023-03-24T08:22:27.271Z,81.90
2023-03-24T08:24:54.430Z,80.60
2023-03-24T08:27:21.538Z,81.50
2023-03-24T08:29:48.519Z,81.60
2023-03-24T08:32:15.479Z,79.70
2023-03-24T08:34:43.633Z,80.30
2023-03-24T08:37:12.122Z,81.80
2023-03-24T08:39:39.199Z,83.00
2023-03-24T08:42:06.671Z,84.00
2023-03-24T08:44:33.768Z,83.40
2023-03-24T08:47:01.582Z,85.50
2023-03-24T08:49:28.779Z,88.80
2023-03-24T08:51:55.932Z,87.20
2023-03-24T08:54:24.073Z,88.20
2023-03-24T08:56:51.192Z,91.80
2023-03-24T08:59:18.903Z,95.40
2023-03-24T09:01:45.983Z,96.30
2023-03-24T09:04:13.452Z,97.80
2023-03-24T09:06:40.497Z,97.60
2023-03-24T09:09:08.185Z,97.40
2023-03-24T09:11:36.734Z,96.60
2023-03-24T09:14:05.391Z,94.70
2023-03-24T09:16:32.587Z,92.30
2023-03-24T09:18:59.526Z,88.70
2023-03-24T09:21:26.488Z,83.40
2023-03-24T09:23:53.437Z,83.70
2023-03-24T09:26:20.669Z,83.20
2023-03-24T09:28:47.928Z,76.60
2023-03-24T09:31:14.867Z,77.30
2023-03-24T09:33:42.084Z,75.60
2023-03-24T09:36:11.117Z,68.50
2023-03-24T09:38:38.103Z,73.90
2023-03-24T09:41:14.941Z,75.30
2023-03-24T09:43:59.200Z,83.00
2023-03-24T09:46:35.378Z,96.30
2023-03-24T09:49:04.063Z,99.90
2023-03-24T09:51:42.509Z,99.90
2023-03-24T09:54:14.779Z,99.90
2023-03-24T09:56:45.632Z,99.90
2023-03-24T09:59:26.529Z,99.90
2023-03-24T10:01:53.586Z,99.90
2023-03-24T10:04:24.184Z,99.90
2023-03-24T10:06:58.415Z,99.90
2023-03-24T10:09:34.084Z,99.90
2023-03-24T10:12:07.123Z,99.90
2023-03-24T10:14:40.421Z,99.90
2023-03-24T10:17:45.211Z,99.90
2023-03-24T10:20:20.533Z,99.90
2023-03-24T10:23:10.188Z,99.90
2023-03-24T10:25:51.509Z,99.90
2023-03-24T10:28:27.123Z,99.90
2023-03-24T10:30:57.844Z,99.90
2023-03-24T10:33:25.249Z,99.90
2023-03-24T10:36:09.429Z,99.90
2023-03-24T10:38:36.522Z,99.90
2023-03-24T10:41:04.419Z,99.90
2023-03-24T10:43:32.361Z,99.90
2023-03-24T10:46:02.375Z,99.90
2023-03-24T10:48:44.899Z,99.90
2023-03-24T10:51:31.744Z,99.90
2023-03-24T10:54:25.775Z,99.90
2023-03-24T10:57:03.856Z,97.40
2023-03-24T10:59:36.995Z,94.00
2023-03-24T11:02:09.856Z,94.60
2023-03-24T11:04:39.388Z,92.80
2023-03-24T11:07:13.911Z,95.90
2023-03-24T11:09:47.308Z,98.30
2023-03-24T11:12:32.273Z,96.80
2023-03-24T11:15:25.191Z,98.90
2023-03-24T11:17:57.748Z,99.90
2023-03-24T11:20:46.527Z,99.90
2023-03-24T11:23:34.669Z,97.80
2023-03-24T11:26:04.594Z,99.40
2023-03-24T11:28:38.202Z,97.50
2023-03-24T11:31:10.788Z,98.90
2023-03-24T11:34:10.989Z,99.90
2023-03-24T11:36:59.500Z,99.90
2023-03-24T11:39:34.596Z,99.90
2023-03-24T11:42:06.009Z,99.90
2023-03-24T11:44:39.157Z,99.90
2023-03-24T11:47:29.301Z,99.90
2023-03-24T11:50:14.127Z,99.90
2023-03-24T11:52:56.722Z,99.90
2023-03-24T11:55:38.031Z,99.90
2023-03-24T11:58:17.282Z,96.10
2023-03-24T12:00:55.729Z,96.30
2023-03-24T12:03:56.852Z,91.20
2023-03-24T12:06:44.681Z,93.70
2023-03-24T12:09:20.272Z,85.90
2023-03-24T12:12:08.434Z,85.20
2023-03-24T12:15:06.442Z,78.20
2023-03-24T12:17:56.237Z,79.90
2023-03-24T12:20:40.219Z,71.50
2023-03-24T12:23:36.480Z,76.80
2023-03-24T12:26:15.038Z,71.40
2023-03-24T12:28:53.009Z,75.70
2023-03-24T12:31:38.183Z,68.70
2023-03-24T12:34:23.173Z,69.60
2023-03-24T12:36:50.553Z,69.50
2023-03-24T12:39:45.548Z,66.70
2023-03-24T12:42:20.917Z,71.40
2023-03-24T12:45:18.781Z,78.10
2023-03-24T12:48:13.974Z,88.00
2023-03-24T12:50:48.936Z,87.60
2023-03-24T12:53:36.616Z,89.00
2023-03-24T12:56:04.092Z,88.60
2023-03-24T12:58:58.540Z,89.00
2023-03-24T13:01:29.732Z,94.30
2023-03-24T13:04:06.844Z,94.50
2023-03-24T13:06:39.282Z,94.40
2023-03-24T13:09:18.342Z,89.80
2023-03-24T13:12:14.053Z,91.70
2023-03-24T13:14:53.250Z,96.10
2023-03-24T13:17:30.883Z,99.90
2023-03-24T13:19:59.898Z,99.90
2023-03-24T13:22:28.813Z,98.40
2023-03-24T13:24:56.380Z,93.60
2023-03-24T13:27:26.865Z,94.40
2023-03-24T13:30:02.763Z,90.90
2023-03-24T13:32:50.827Z,91.80
2023-03-24T13:35:54.635Z,90.80
2023-03-24T13:38:53.822Z,91.60
2023-03-24T13:41:24.957Z,93.90
2023-03-24T13:44:02.328Z,99.70
2023-03-24T13:46:29.617Z,99.90
2023-03-24T13:48:58.816Z,99.90
2023-03-24T13:51:35.373Z,99.90
2023-03-24T13:54:14.016Z,98.00
2023-03-24T13:57:05.825Z,99.40
2023-03-24T14:00:14.379Z,96.90
2023-03-24T14:02:50.112Z,99.90
2023-03-24T14:05:23.370Z,99.90
2023-03-24T14:08:11.759Z,99.90
2023-03-24T14:10:50.477Z,98.60
2023-03-24T14:13:17.418Z,95.10
2023-03-24T14:15:56.332Z,93.60
2023-03-24T14:18:24.908Z,92.20
2023-03-24T14:21:02.701Z,93.60
2023-03-24T14:23:45.794Z,91.40
2023-03-24T14:26:15.561Z,92.50
2023-03-24T14:28:46.650Z,93.60
2023-03-24T14:31:16.085Z,91.80
2023-03-24T14:34:01.967Z,90.70
2023-03-24T14:36:40.955Z,88.00
2023-03-24T14:39:26.376Z,89.60
2023-03-24T14:41:57.286Z,94.90
2023-03-24T14:44:49.546Z,90.00
2023-03-24T14:47:20.466Z,88.60
2023-03-24T14:49:50.874Z,85.10
2023-03-24T14:52:24.356Z,86.40
2023-03-24T14:54:58.615Z,87.50
2023-03-24T14:57:35.708Z,88.40
2023-03-24T15:00:51.725Z,88.20
2023-03-24T15:03:50.336Z,85.50
2023-03-24T15:06:24.631Z,87.80
2023-03-24T15:08:59.842Z,88.90
2023-03-24T15:11:33.551Z,89.70
2023-03-24T15:14:03.577Z,92.90
2023-03-24T15:16:36.429Z,95.10
2023-03-24T15:19:22.700Z,99.90
2023-03-24T15:21:58.752Z,99.40
2023-03-24T15:24:35.940Z,99.90
2023-03-24T15:27:06.636Z,98.30
2023-03-24T15:29:34.912Z,96.40
2023-03-24T15:32:02.126Z,98.50
2023-03-24T15:34:42.711Z,96.40
2023-03-24T15:37:50.888Z,97.40
2023-03-24T15:40:30.608Z,97.10
2023-03-24T15:43:00.405Z,91.10
2023-03-24T15:45:37.192Z,87.10
2023-03-24T15:48:13.875Z,88.80
2023-03-24T15:50:53.938Z,90.70
2023-03-24T15:53:26.269Z,88.40
2023-03-24T15:56:14.472Z,90.00
2023-03-24T15:58:57.143Z,91.00
2023-03-24T16:01:39.389Z,90.50
2023-03-24T16:04:13.262Z,86.70
2023-03-24T16:06:43.505Z,86.90
2023-03-24T16:09:15.600Z,87.60
2023-03-24T16:11:42.800Z,83.90
2023-03-24T16:14:18.837Z,77.20
2023-03-24T16:16:46.035Z,80.00
2023-03-24T16:19:13.548Z,80.80
2023-03-24T16:21:40.489Z,82.20
2023-03-24T16:24:07.461Z,82.60
2023-03-24T16:26:34.538Z,80.30
2023-03-24T16:29:23.376Z,80.70
2023-03-24T16:31:55.720Z,78.30
2023-03-24T16:34:23.561Z,79.80
2023-03-24T16:36:52.573Z,76.40
2023-03-24T16:39:25.550Z,79.20
2023-03-24T16:41:53.313Z,79.20
2023-03-24T16:44:21.202Z,79.20
2023-03-24T16:46:53.625Z,78.90
2023-03-24T16:49:21.929Z,79.00
2023-03-24T16:51:48.921Z,76.50
2023-03-24T16:54:15.921Z,74.50
2023-03-24T16:56:43.189Z,73.80
2023-03-24T16:59:12.531Z,75.80
2023-03-24T17:01:42.264Z,74.90
2023-03-24T17:04:13.919Z,75.00
2023-03-24T17:06:43.780Z,72.20
2023-03-24T17:09:12.659Z,71.90
2023-03-24T17:11:48.128Z,70.80
2023-03-24T17:14:15.581Z,67.90
2023-03-24T17:16:45.252Z,61.50
2023-03-24T17:19:14.761Z,60.00
2023-03-24T17:21:52.061Z,57.10
2023-03-24T17:24:20.030Z,55.80
2023-03-24T17:26:46.988Z,56.50
2023-03-24T17:29:14.244Z,55.20
2023-03-24T17:31:43.284Z,54.10
2023-03-24T17:36:44.419Z,54.00
2023-03-24T17:39:18.062Z,54.90
2023-03-24T17:41:45.251Z,57.20
2023-03-24T17:44:12.550Z,58.50
2023-03-24T17:46:39.573Z,56.90
2023-03-24T17:49:06.954Z,56.00
2023-03-24T17:51:34.071Z,57.00
2023-03-24T17:54:01.177Z,58.90
2023-03-24T17:56:28.140Z,59.10
2023-03-24T17:58:56.321Z,58.90
2023-03-24T18:01:23.720Z,59.40
2023-03-24T18:03:50.847Z,57.20
2023-03-24T18:06:17.978Z,58.90
2023-03-24T18:08:45.016Z,58.90
2023-03-24T18:11:15.373Z,60.60
2023-03-24T18:13:43.161Z,58.30
2023-03-24T18:16:20.671Z,57.00
2023-03-24T18:18:50.023Z,56.30
2023-03-24T18:21:18.037Z,55.50
2023-03-24T18:23:46.724Z,61.70
2023-03-24T18:26:15.204Z,68.40
2023-03-24T18:28:42.973Z,71.40
2023-03-24T18:31:12.945Z,75.00
2023-03-24T18:33:43.035Z,77.60
2023-03-24T18:36:10.875Z,80.60
2023-03-24T18:38:38.160Z,81.60
2023-03-24T18:41:07.581Z,82.90
2023-03-24T18:43:37.889Z,84.60
2023-03-24T18:46:09.483Z,85.30
2023-03-24T18:48:37.862Z,85.30
2023-03-24T18:51:06.235Z,85.40
2023-03-24T18:53:34.627Z,86.70
2023-03-24T18:56:02.726Z,87.20
2023-03-24T18:58:30.091Z,87.90
2023-03-24T19:00:58.541Z,88.60
2023-03-24T19:03:27.396Z,89.50
2023-03-24T19:05:54.518Z,89.40
2023-03-24T19:08:22.090Z,89.50
2023-03-24T19:10:49.854Z,90.30
2023-03-24T19:13:17.183Z,90.90
2023-03-24T19:15:48.905Z,91.30
2023-03-24T19:18:16.141Z,91.90
2023-03-24T19:20:43.149Z,90.90
2023-03-24T19:23:10.523Z,91.30
2023-03-24T19:25:37.605Z,91.30
2023-03-24T19:28:04.767Z,91.90
2023-03-24T19:30:31.721Z,94.30
2023-03-24T19:33:00.734Z,95.70
2023-03-24T19:35:27.785Z,96.80
2023-03-24T19:37:56.421Z,97.00
2023-03-24T19:40:23.446Z,97.70
2023-03-24T19:42:50.657Z,97.90
2023-03-24T19:45:19.690Z,97.90
2023-03-24T19:47:47.068Z,97.80
2023-03-24T19:50:16.710Z,97.70
2023-03-24T19:52:46.079Z,97.30
2023-03-24T19:55:13.545Z,97.20
2023-03-24T19:57:42.561Z,96.80
2023-03-24T20:00:14.575Z,96.30
2023-03-24T20:02:41.851Z,96.00
2023-03-24T20:05:09.734Z,95.40
2023-03-24T20:07:37.534Z,95.50
2023-03-24T20:10:04.898Z,94.70
2023-03-24T20:12:33.887Z,94.20
2023-03-24T20:15:01.397Z,93.60
2023-03-24T20:17:29.964Z,93.60
2023-03-24T20:19:57.268Z,93.00
2023-03-24T20:22:25.312Z,92.40
2023-03-24T20:24:52.316Z,92.30
2023-03-24T20:27:20.770Z,92.40
2023-03-24T20:29:47.760Z,91.90
2023-03-24T20:32:15.390Z,92.40
2023-03-24T20:34:42.597Z,92.20
2023-03-24T20:37:10.103Z,92.00
2023-03-24T20:39:37.932Z,91.30
2023-03-24T20:42:04.963Z,90.10
2023-03-24T20:44:32.868Z,90.60
2023-03-24T20:47:00.840Z,90.70
2023-03-24T20:49:28.168Z,91.00
2023-03-24T20:51:56.109Z,91.50
2023-03-24T20:54:23.802Z,92.00
2023-03-24T20:56:52.459Z,90.90
2023-03-24T20:59:20.365Z,90.90
2023-03-24T21:01:49.981Z,91.00
2023-03-24T21:04:19.515Z,91.40
2023-03-24T21:06:47.667Z,92.00
2023-03-24T21:09:14.786Z,92.40
2023-03-24T21:11:41.812Z,93.90
2023-03-24T21:14:08.755Z,95.50
2023-03-24T21:16:38.187Z,96.30
2023-03-24T21:19:05.261Z,98.80
2023-03-24T21:21:32.423Z,98.90
2023-03-24T21:24:00.641Z,99.30
2023-03-24T21:26:28.161Z,99.90
2023-03-24T21:28:55.242Z,99.90
2023-03-24T21:31:31.025Z,99.90
2023-03-24T21:33:59.302Z,99.90
2023-03-24T21:36:32.830Z,99.90
2023-03-24T21:39:00.049Z,99.90
2023-03-24T21:41:28.962Z,99.90
2023-03-24T21:43:55.922Z,99.90
2023-03-24T21:46:26.554Z,99.90
2023-03-24T21:48:59.732Z,99.90
2023-03-24T21:51:34.279Z,99.90
2023-03-24T21:54:03.607Z,99.90
2023-03-24T21:56:33.911Z,99.90
2023-03-24T21:59:03.585Z,99.90
2023-03-24T22:01:31.393Z,99.90
2023-03-24T22:03:59.062Z,99.90
2023-03-24T22:06:29.021Z,99.90
2023-03-24T22:09:06.714Z,99.90
2023-03-24T22:11:35.121Z,99.20
2023-03-24T22:14:03.015Z,98.00
2023-03-24T22:16:30.262Z,95.10
2023-03-24T22:18:57.239Z,93.60
2023-03-24T22:21:24.193Z,90.50
2023-03-24T22:23:52.737Z,88.40
2023-03-24T22:26:19.868Z,85.40
2023-03-24T22:28:46.915Z,84.20
2023-03-24T22:31:16.726Z,82.40
2023-03-24T22:33:47.488Z,81.30
2023-03-24T22:36:15.876Z,80.30
2023-03-24T22:38:42.929Z,77.80
2023-03-24T22:41:12.596Z,77.00
2023-03-24T22:43:41.748Z,76.00
2023-03-24T22:46:10.132Z,72.80
2023-03-24T22:48:38.963Z,69.50
2023-03-24T22:51:07.851Z,68.60
2023-03-24T22:53:36.187Z,69.50
2023-03-24T22:56:03.687Z,69.50
2023-03-24T22:58:30.642Z,69.60
2023-03-24T23:00:57.595Z,69.50
2023-03-24T23:03:27.061Z,69.50
2023-03-24T23:05:53.943Z,68.60
2023-03-24T23:08:21.053Z,67.70
2023-03-24T23:10:48.326Z,68.10
2023-03-24T23:13:17.216Z,68.60
2023-03-24T23:15:47.819Z,69.60
2023-03-24T23:18:15.921Z,71.40
2023-03-24T23:20:42.946Z,74.80
2023-03-24T23:23:10.610Z,76.40
2023-03-24T23:25:45.530Z,77.30
2023-03-24T23:28:13.377Z,79.20
2023-03-24T23:30:41.404Z,80.70
2023-03-24T23:33:08.881Z,82.00
2023-03-24T23:35:37.678Z,83.30
2023-03-24T23:38:06.830Z,83.30
2023-03-24T23:40:33.948Z,83.00
2023-03-24T23:43:02.160Z,84.20
2023-03-24T23:45:29.248Z,83.90
2023-03-24T23:47:56.664Z,83.70
2023-03-24T23:50:24.403Z,82.00
2023-03-24T23:52:51.502Z,82.00
2023-03-24T23:55:18.613Z,80.00
2023-03-24T23:57:46.830Z,80.10
